Time;durP1;ratioP1;P1;durP2;ratioP2;P2;SDS_P1;SDS_P2;PMS_P1;PMS_P2;Temp;Humidity;BMP_temperature;BMP_pressure;BME280_temperature;BME280_humidity;BME280_pressure;Samples;Min_cycle;Max_cycle;Signal;HPM_P1;HPM_P2
2021/11/09 00:01:21;;;;;;;17.98;5.93;;;9.40;99.90;;;10.05;95.34;102013.94;5064719;28;20197;-76
2021/11/09 00:03:51;;;;;;;19.92;6.97;;;9.40;99.90;;;10.03;95.78;102015.72;5051250;28;20272;-76
2021/11/09 00:06:22;;;;;;;24.85;8.80;;;9.50;99.90;;;10.02;95.85;102020.97;5047975;28;20263;-76
2021/11/09 00:08:56;;;;;;;20.40;6.60;;;9.40;99.90;;;10.03;95.86;102014.84;5071513;28;20382;-76
2021/11/09 00:11:23;;;;;;;19.67;6.60;;;9.50;99.90;;;10.05;95.88;102021.81;5037875;28;20661;-76
2021/11/09 00:13:52;;;;;;;20.13;5.90;;;9.40;99.90;;;10.06;95.79;102022.69;5063131;28;20193;-76
2021/11/09 00:16:19;;;;;;;18.85;6.70;;;9.50;99.90;;;10.07;95.94;102022.66;5045365;28;20257;-76
2021/11/09 00:18:48;;;;;;;15.88;5.90;;;9.50;99.90;;;10.08;96.08;102034.84;5044889;28;20219;-76
2021/11/09 00:21:20;;;;;;;20.70;6.45;;;9.50;99.90;;;10.06;95.98;102028.75;5043859;28;20208;-76
2021/11/09 00:23:47;;;;;;;18.52;5.82;;;9.50;99.90;;;10.08;96.06;102033.97;5051396;28;20209;-75
2021/11/09 00:26:14;;;;;;;15.88;5.82;;;9.50;99.90;;;10.05;96.11;102034.88;5045121;28;20221;-76
2021/11/09 00:28:41;;;;;;;15.65;5.60;;;9.50;99.90;;;10.07;96.03;102027.88;5041002;28;20250;-77
2021/11/09 00:31:10;;;;;;;23.77;6.57;;;9.50;99.90;;;10.07;96.08;102024.38;5054626;28;20197;-76
2021/11/09 00:33:37;;;;;;;19.88;5.60;;;9.50;99.90;;;10.08;96.20;102040.09;5041903;28;20200;-76
2021/11/09 00:36:05;;;;;;;15.70;5.82;;;9.40;99.90;;;10.10;96.16;102035.72;5044040;28;20216;-76
2021/11/09 00:38:32;;;;;;;12.98;5.22;;;9.50;99.90;;;10.09;95.94;102034.00;5049140;28;20223;-76
2021/11/09 00:41:00;;;;;;;15.38;5.95;;;9.40;99.90;;;10.06;95.95;102035.75;5042845;28;20194;-76
2021/11/09 00:43:27;;;;;;;17.67;5.97;;;9.40;99.90;;;10.07;96.25;102038.34;5043073;28;20258;-76
2021/11/09 00:45:54;;;;;;;18.95;5.90;;;9.40;99.90;;;10.07;96.29;102046.19;5043294;28;20216;-76
2021/11/09 00:48:22;;;;;;;17.48;6.78;;;9.50;99.90;;;10.11;96.25;102049.66;5048722;28;20250;-76
2021/11/09 00:50:50;;;;;;;18.20;5.78;;;9.50;99.90;;;10.09;96.22;102054.91;5050004;28;20200;-76
2021/11/09 00:53:19;;;;;;;18.10;5.57;;;9.50;99.90;;;10.04;96.23;102051.47;5049709;28;20239;-76
2021/11/09 00:55:47;;;;;;;16.70;5.60;;;9.40;99.90;;;10.00;96.33;102049.75;5050254;28;20280;-76
2021/11/09 00:58:15;;;;;;;16.35;5.80;;;9.40;99.90;;;10.01;96.32;102050.63;5051244;28;20189;-76
2021/11/09 01:00:43;;;;;;;17.08;5.43;;;9.40;99.90;;;10.00;96.48;102055.00;5042585;28;20203;-76
2021/11/09 01:03:12;;;;;;;16.70;5.93;;;9.40;99.90;;;10.01;96.45;102056.72;5047151;28;20213;-76
2021/11/09 01:05:41;;;;;;;14.70;5.25;;;9.40;99.90;;;10.05;96.69;102057.53;5046778;28;20714;-76
2021/11/09 01:08:14;;;;;;;14.52;5.50;;;9.40;99.90;;;10.06;96.40;102054.91;5053485;28;20185;-76
2021/11/09 01:10:46;;;;;;;18.38;6.15;;;9.40;99.90;;;10.05;96.87;102050.56;5047149;28;20205;-77
2021/11/09 01:13:14;;;;;;;17.60;5.95;;;9.40;99.90;;;10.04;96.67;102051.47;5045873;28;20200;-76
2021/11/09 01:15:49;;;;;;;15.68;5.90;;;9.40;99.90;;;10.05;96.94;102049.69;5050484;28;20721;-78
2021/11/09 01:18:19;;;;;;;17.38;5.85;;;9.40;99.90;;;10.06;96.97;102047.06;5046925;28;20291;-77
2021/11/09 01:20:48;;;;;;;22.08;5.82;;;9.40;99.90;;;10.07;96.93;102064.50;5043304;28;20195;-76
2021/11/09 01:23:15;;;;;;;15.57;5.80;;;9.40;99.90;;;10.05;96.78;102061.03;5058841;28;20661;-77
2021/11/09 01:25:42;;;;;;;14.23;5.25;;;9.40;99.90;;;10.05;96.87;102061.03;5048175;28;20584;-76
2021/11/09 01:28:10;;;;;;;14.80;5.35;;;9.40;99.90;;;10.10;96.91;102061.00;5052458;28;20189;-77
2021/11/09 01:30:38;;;;;;;15.27;5.35;;;9.50;99.90;;;10.13;97.00;102054.88;5056041;28;20227;-76
2021/11/09 01:33:06;;;;;;;11.80;4.88;;;9.50;99.90;;;10.13;96.80;102053.09;5057627;28;20196;-77
2021/11/09 01:35:34;;;;;;;17.95;4.78;;;9.50;99.90;;;10.10;96.58;102051.41;5052093;28;20674;-76
2021/11/09 01:38:03;;;;;;;18.08;5.30;;;9.40;99.90;;;10.06;96.58;102044.44;5039036;28;20193;-76
2021/11/09 01:40:31;;;;;;;15.85;4.97;;;9.40;99.90;;;10.06;96.92;102046.22;5036753;28;20225;-76
2021/11/09 01:43:01;;;;;;;11.98;4.28;;;9.50;99.90;;;10.10;96.87;102047.91;5038299;28;20181;-77
2021/11/09 01:45:28;;;;;;;14.75;4.63;;;9.50;99.90;;;10.11;96.63;102041.81;5049036;28;20189;-77
2021/11/09 01:47:56;;;;;;;12.35;4.55;;;9.50;99.90;;;10.13;96.93;102050.47;5057058;28;20216;-76
2021/11/09 01:50:29;;;;;;;13.82;4.40;;;9.50;99.90;;;10.13;96.75;102048.75;5052775;28;20196;-76
2021/11/09 01:52:57;;;;;;;12.63;4.15;;;9.50;99.90;;;10.11;96.57;102047.88;5041350;28;20221;-77
2021/11/09 01:55:28;;;;;;;13.57;4.45;;;9.50;99.90;;;10.12;96.69;102046.16;5051079;28;20712;-76
2021/11/09 01:57:57;;;;;;;10.95;4.20;;;9.50;99.90;;;10.13;96.46;102049.63;5048894;28;20201;-76
2021/11/09 02:00:35;;;;;;;11.55;3.83;;;9.50;99.90;;;10.10;96.32;102053.16;5047167;28;20190;-76
2021/11/09 02:03:03;;;;;;;11.95;3.72;;;9.50;99.90;;;10.11;96.65;102055.72;5048268;28;20185;-77
2021/11/09 02:05:31;;;;;;;14.43;4.40;;;9.50;99.90;;;10.12;96.64;102054.00;5063305;28;20190;-76
2021/11/09 02:08:01;;;;;;;12.73;4.38;;;9.50;99.90;;;10.13;96.55;102056.59;5049181;28;20212;-76
2021/11/09 02:10:35;;;;;;;12.02;4.28;;;9.50;99.90;;;10.13;96.45;102061.81;5047898;28;20603;-76
2021/11/09 02:13:03;;;;;;;12.55;4.15;;;9.50;99.90;;;10.09;96.57;102065.38;5047770;28;20215;-76
2021/11/09 02:15:33;;;;;;;11.75;4.05;;;9.50;99.90;;;10.07;96.55;102069.72;5043169;28;20188;-76
2021/11/09 02:18:00;;;;;;;10.40;4.00;;;9.50;99.90;;;10.10;96.62;102067.09;5048675;28;20193;-76
2021/11/09 02:20:29;;;;;;;12.77;4.32;;;9.50;99.90;;;10.11;96.65;102075.81;5049971;28;20332;-77
2021/11/09 02:23:00;;;;;;;11.00;3.67;;;9.50;99.90;;;10.09;96.84;102070.59;5051774;28;20784;-76
2021/11/09 02:25:33;;;;;;;10.88;3.78;;;9.50;99.90;;;10.09;96.74;102070.59;5050663;28;20193;-76
2021/11/09 02:28:02;;;;;;;11.57;3.78;;;9.50;99.90;;;10.10;96.59;102074.94;5050278;28;20779;-76
2021/11/09 02:30:31;;;;;;;11.65;4.28;;;9.50;99.90;;;10.10;96.60;102077.56;5064515;28;20654;-77
2021/11/09 02:32:59;;;;;;;11.00;4.20;;;9.50;99.90;;;10.07;96.74;102082.81;5051622;28;20195;-77
2021/11/09 02:35:27;;;;;;;11.25;4.18;;;9.40;99.90;;;10.06;96.79;102080.22;5050762;28;20203;-76
2021/11/09 02:37:58;;;;;;;12.00;4.38;;;9.40;99.90;;;10.07;96.82;102082.81;5052790;28;20188;-76
2021/11/09 02:40:26;;;;;;;11.85;4.55;;;9.40;99.90;;;10.05;96.72;102084.56;5060270;28;20197;-76
2021/11/09 02:42:56;;;;;;;11.13;4.18;;;9.40;99.90;;;10.02;96.96;102089.84;5067657;28;20223;-76
2021/11/09 02:45:37;;;;;;;12.07;3.90;;;9.40;99.90;;;10.02;96.99;102086.34;5048004;28;20211;-77
2021/11/09 02:48:08;;;;;;;14.50;4.30;;;9.40;99.90;;;10.03;96.98;102088.94;5052596;28;20227;-76
2021/11/09 02:50:38;;;;;;;13.40;4.90;;;9.40;99.90;;;10.00;96.64;102090.72;5067173;28;20205;-76
2021/11/09 02:53:12;;;;;;;14.95;4.60;;;9.40;99.90;;;9.98;97.44;102090.75;5051533;28;20247;-76
2021/11/09 02:55:42;;;;;;;17.77;5.03;;;9.40;99.90;;;9.97;97.23;102090.78;5038659;28;20193;-76
2021/11/09 02:58:20;;;;;;;14.40;4.57;;;9.40;99.90;;;9.92;97.27;102103.91;5046171;28;20200;-76
2021/11/09 03:01:01;;;;;;;17.40;5.25;;;9.40;99.90;;;9.89;97.53;102093.50;5045016;28;20200;-76
2021/11/09 03:03:33;;;;;;;18.55;5.90;;;9.30;99.90;;;9.88;97.44;102110.06;5035172;28;20193;-76
2021/11/09 03:06:12;;;;;;;14.55;5.53;;;9.30;99.90;;;9.87;97.41;102105.72;5041697;28;20263;-76
2021/11/09 03:08:43;;;;;;;16.23;4.88;;;9.30;99.90;;;9.86;97.77;102106.59;5048231;28;20242;-76
2021/11/09 03:11:10;;;;;;;18.05;5.53;;;9.30;99.90;;;9.84;97.74;102111.00;5041654;28;20305;-76
2021/11/09 03:13:38;;;;;;;15.07;5.28;;;9.30;99.90;;;9.86;98.02;102110.97;5036039;28;20204;-76
2021/11/09 03:16:08;;;;;;;13.65;4.75;;;9.30;99.90;;;9.86;98.02;102111.81;5035571;28;20209;-76
2021/11/09 03:18:42;;;;;;;17.77;5.45;;;9.30;99.90;;;9.86;97.82;102109.19;5046703;28;20292;-76
2021/11/09 03:40:28;;;;;;;17.45;5.55;;;9.30;99.90;;;9.91;97.75;102132.69;5039880;28;20197;-76
2021/11/09 03:45:41;;;;;;;16.15;5.38;;;9.30;99.90;;;9.93;97.75;102137.00;5037113;28;20233;-77
2021/11/09 03:48:11;;;;;;;16.48;5.20;;;9.30;99.90;;;9.96;97.64;102143.97;5049027;28;20209;-76
2021/11/09 03:50:41;;;;;;;16.80;5.70;;;9.40;99.90;;;9.96;97.83;102139.59;5050564;28;20200;-76
2021/11/09 03:53:15;;;;;;;18.27;5.15;;;9.30;99.90;;;9.97;97.74;102143.06;5053119;28;20216;-76
2021/11/09 03:56:04;;;;;;;17.27;5.43;;;9.40;99.90;;;10.01;97.85;102140.41;5052588;28;20213;-76
2021/11/09 03:58:35;;;;;;;15.85;4.90;;;9.40;99.90;;;10.03;97.55;102141.25;5046001;28;20189;-76
2021/11/09 04:01:06;;;;;;;17.48;6.00;;;9.40;99.90;;;10.05;97.70;102144.72;5046443;28;20215;-76
2021/11/09 04:03:45;;;;;;;16.52;5.13;;;9.40;99.90;;;10.04;97.48;102140.38;5047124;28;20208;-76
2021/11/09 04:06:24;;;;;;;18.42;5.07;;;9.40;99.90;;;10.04;97.41;102143.00;5055180;28;20216;-76
2021/11/09 04:08:56;;;;;;;19.52;5.10;;;9.40;99.90;;;10.00;97.16;102148.25;5044811;28;20189;-76
2021/11/09 04:11:29;;;;;;;17.02;4.75;;;9.40;99.90;;;9.97;97.20;102138.72;5045016;28;20193;-76
2021/11/09 04:14:01;;;;;;;18.60;4.85;;;9.40;99.90;;;9.97;97.04;102143.94;5041058;28;20268;-77
2021/11/09 04:16:35;;;;;;;15.65;4.85;;;9.40;99.90;;;9.96;97.08;102142.19;5038505;28;20224;-77
2021/11/09 04:19:12;;;;;;;20.77;5.25;;;9.40;99.90;;;9.97;97.29;102150.91;5040561;28;20193;-76
2021/11/09 04:21:57;;;;;;;19.73;5.10;;;9.40;99.90;;;9.96;97.34;102149.19;5040675;28;20303;-76
2021/11/09 04:24:41;;;;;;;20.17;5.10;;;9.30;99.90;;;9.98;97.30;102144.78;5039244;28;20197;-76
2021/11/09 04:27:22;;;;;;;18.05;5.70;;;9.40;99.90;;;10.00;97.08;102151.75;5046590;28;20226;-76
2021/11/09 04:30:17;;;;;;;14.70;5.15;;;9.40;99.90;;;9.98;97.03;102156.13;5046457;28;20189;-77
2021/11/09 04:35:55;;;;;;;17.00;4.97;;;9.40;99.90;;;9.99;96.89;102165.72;5043156;28;20235;-76
2021/11/09 04:50:20;;;;;;;21.67;5.88;;;9.30;99.90;;;9.93;96.60;102168.38;5050545;28;20186;-77
2021/11/09 04:53:10;;;;;;;16.75;5.40;;;9.30;99.90;;;9.93;96.83;102173.63;5048698;28;20192;-76
2021/11/09 05:01:18;;;;;;;17.67;5.32;;;9.30;99.90;;;9.91;96.32;102190.22;5054232;28;20192;-76
2021/11/09 05:09:18;;;;;;;23.27;5.68;;;9.30;99.90;;;9.96;96.26;102210.19;5055617;28;20197;-76
2021/11/09 05:11:46;;;;;;;19.88;5.72;;;9.40;99.90;;;9.99;96.36;102198.84;5056375;28;20200;-76
2021/11/09 05:14:14;;;;;;;16.10;5.25;;;9.40;99.90;;;9.98;96.29;102203.19;5054714;28;20240;-76
2021/11/09 05:16:44;;;;;;;16.50;5.63;;;9.40;99.90;;;10.00;96.23;102218.88;5049413;28;20213;-76
2021/11/09 05:19:11;;;;;;;15.77;5.13;;;9.40;99.90;;;10.01;96.23;102216.22;5054759;28;20204;-76
2021/11/09 05:21:40;;;;;;;19.38;6.05;;;9.40;99.90;;;10.00;95.98;102227.59;5055066;28;20790;-76
2021/11/09 05:24:09;;;;;;;14.00;5.90;;;9.40;99.90;;;10.00;96.21;102227.59;5071498;28;20235;-76
2021/11/09 05:26:37;;;;;;;18.20;5.70;;;9.50;99.90;;;10.01;95.93;102229.31;5055903;28;20686;-75
2021/11/09 05:29:04;;;;;;;16.92;5.68;;;9.50;99.90;;;10.03;96.07;102227.53;5056993;28;20181;-76
2021/11/09 05:31:32;;;;;;;22.08;6.22;;;9.50;99.90;;;10.04;95.75;102238.88;5054548;28;20201;-76
2021/11/09 05:34:00;;;;;;;19.67;6.97;;;9.50;99.90;;;10.03;95.86;102238.00;5049206;28;20200;-76
2021/11/09 05:36:31;;;;;;;21.13;6.47;;;9.50;99.90;;;10.04;95.73;102241.50;5066151;28;20219;-76
2021/11/09 05:39:07;;;;;;;17.27;5.78;;;9.50;99.90;;;10.03;95.71;102240.63;5037087;28;20244;-76
2021/11/09 05:41:36;;;;;;;18.65;6.18;;;9.60;99.90;;;10.03;95.89;102248.47;5046858;28;20197;-77
2021/11/09 05:44:06;;;;;;;18.40;6.45;;;9.60;99.90;;;10.01;95.75;102252.84;5045375;28;20201;-76
2021/11/09 05:46:34;;;;;;;17.88;6.68;;;9.50;99.90;;;9.99;95.60;102262.47;5044665;28;20701;-77
2021/11/09 05:49:03;;;;;;;17.15;6.28;;;9.50;99.90;;;9.99;95.79;102256.38;5055274;28;20588;-76
2021/11/09 05:51:30;;;;;;;20.92;7.03;;;9.50;99.90;;;10.00;95.76;102248.50;5050676;28;20570;-77
2021/11/09 05:53:57;;;;;;;18.65;6.80;;;9.50;99.90;;;10.02;95.74;102261.56;5052549;28;20189;-76
2021/11/09 05:56:24;;;;;;;22.75;7.57;;;9.50;99.90;;;10.00;95.70;102258.97;5061654;28;20216;-78
2021/11/09 05:58:51;;;;;;;20.20;7.55;;;9.50;99.90;;;10.04;95.67;102265.91;5049073;28;20270;-76
2021/11/09 06:01:17;;;;;;;19.92;6.57;;;9.60;99.90;;;10.04;95.48;102265.91;5051067;28;20204;-75
2021/11/09 06:03:44;;;;;;;18.05;6.65;;;9.50;99.90;;;10.05;95.46;102259.78;5044547;28;20197;-76
2021/11/09 06:06:12;;;;;;;19.13;6.68;;;9.60;99.90;;;10.03;95.16;102266.78;5036240;28;20794;-76
2021/11/09 06:08:39;;;;;;;19.17;7.00;;;9.60;99.90;;;10.00;95.41;102268.56;5045122;28;20213;-75
2021/11/09 06:11:06;;;;;;;20.65;6.63;;;9.50;99.90;;;9.98;95.15;102265.97;5052891;28;20203;-76
2021/11/09 06:13:33;;;;;;;21.25;6.82;;;9.50;99.90;;;10.00;95.57;102277.28;5043495;28;20609;-78
2021/11/09 06:16:00;;;;;;;22.60;6.93;;;9.60;99.90;;;10.02;95.45;102287.72;5045704;28;20210;-76
2021/11/09 06:18:26;;;;;;;21.85;6.07;;;9.60;99.90;;;10.00;95.39;102287.72;5043511;28;20232;-75
2021/11/09 06:20:53;;;;;;;29.05;7.57;;;9.60;99.90;;;10.01;95.13;102291.22;5035179;28;20711;-76
2021/11/09 06:23:21;;;;;;;21.25;6.57;;;9.60;99.90;;;9.99;95.30;102288.63;5044290;28;20205;-76
2021/11/09 06:25:49;;;;;;;20.88;7.13;;;9.60;99.90;;;10.01;95.30;102299.91;5041868;28;20254;-76
2021/11/09 06:28:20;;;;;;;22.48;7.80;;;9.60;99.90;;;10.00;95.18;102300.81;5043994;28;20221;-76
2021/11/09 06:30:51;;;;;;;20.77;7.00;;;9.60;99.90;;;9.98;95.22;102307.78;5037500;28;20757;-76
2021/11/09 06:33:18;;;;;;;20.58;6.75;;;9.60;99.90;;;9.99;95.12;102311.28;5047677;28;20284;-77
2021/11/09 06:35:45;;;;;;;22.13;7.50;;;9.60;99.90;;;9.98;95.12;102322.59;5039920;28;20216;-76
2021/11/09 06:38:12;;;;;;;19.10;7.20;;;9.50;99.90;;;10.01;95.27;102327.84;5043116;28;20201;-76
2021/11/09 06:40:41;;;;;;;21.00;7.47;;;9.60;99.90;;;10.04;95.12;102317.34;5044869;28;20269;-76
2021/11/09 06:43:08;;;;;;;25.42;7.97;;;9.60;99.90;;;10.04;94.85;102328.69;5040614;28;20197;-77
2021/11/09 06:45:36;;;;;;;27.63;8.40;;;9.60;99.90;;;10.04;94.61;102333.91;5042443;28;20543;-76
2021/11/09 06:48:04;;;;;;;24.73;7.43;;;9.60;99.90;;;10.05;94.68;102335.63;5065960;28;20235;-76
2021/11/09 06:50:32;;;;;;;22.58;7.25;;;9.60;99.90;;;10.05;94.99;102338.25;5044087;28;20204;-76
2021/11/09 06:52:59;;;;;;;17.95;7.28;;;9.60;99.90;;;10.04;94.75;102344.38;5053412;28;20954;-76
2021/11/09 06:55:26;;;;;;;20.42;7.90;;;9.60;99.90;;;10.08;94.85;102350.44;5039339;28;20197;-76
2021/11/09 06:57:56;;;;;;;23.00;7.28;;;9.60;99.90;;;10.09;94.68;102355.69;5046359;28;20208;-77
2021/11/09 07:00:24;;;;;;;21.45;7.25;;;9.60;99.90;;;10.11;94.51;102363.53;5045004;28;20554;-75
2021/11/09 07:02:51;;;;;;;20.52;7.35;;;9.60;99.90;;;10.08;94.31;102363.53;5068379;28;20196;-76
2021/11/09 07:05:19;;;;;;;20.75;7.35;;;9.60;99.90;;;10.11;94.52;102372.22;5040797;28;20196;-77
2021/11/09 07:07:46;;;;;;;24.75;7.82;;;9.70;99.90;;;10.13;94.37;102376.59;5047077;28;20208;-76
2021/11/09 07:10:14;;;;;;;20.67;6.50;;;9.70;99.90;;;10.15;94.19;102393.13;5040191;28;20254;-76
2021/11/09 07:12:43;;;;;;;20.80;6.78;;;9.70;99.90;;;10.13;94.14;102388.78;5046152;28;20194;-76
2021/11/09 07:15:12;;;;;;;18.38;7.45;;;9.70;99.90;;;10.17;94.41;102404.44;5047250;28;20194;-76
2021/11/09 07:17:40;;;;;;;18.30;6.90;;;9.80;99.90;;;10.19;94.03;102403.56;5042376;28;20274;-76
2021/11/09 07:20:10;;;;;;;19.48;7.40;;;9.70;99.90;;;10.24;94.10;102408.75;5045311;28;20229;-76
2021/11/09 07:22:37;;;;;;;22.83;7.68;;;9.80;99.90;;;10.26;93.98;102414.84;5038684;28;20279;-77
2021/11/09 07:25:06;;;;;;;26.20;7.60;;;9.80;99.90;;;10.27;93.63;102408.69;5050277;28;20535;-77
2021/11/09 07:27:33;;;;;;;22.83;7.03;;;9.80;99.90;;;10.26;93.67;102417.44;5045767;28;20217;-77
2021/11/09 07:30:02;;;;;;;22.05;7.10;;;9.80;99.90;;;10.27;93.71;102421.78;5047183;28;20197;-77
2021/11/09 07:32:30;;;;;;;20.60;7.63;;;9.90;99.90;;;10.31;93.77;102415.66;5049060;28;20201;-76
2021/11/09 07:34:57;;;;;;;22.15;6.93;;;9.90;99.90;;;10.33;93.65;102413.91;5042758;28;20198;-77
2021/11/09 07:37:26;;;;;;;23.90;7.97;;;9.90;99.90;;;10.33;93.41;102417.41;5043243;28;20223;-76
2021/11/09 07:39:52;;;;;;;22.20;7.60;;;9.90;99.90;;;10.35;93.45;102418.22;5040472;28;20200;-76
2021/11/09 07:42:19;;;;;;;22.90;7.32;;;9.90;99.90;;;10.36;93.37;102424.34;5042200;28;20196;-77
2021/11/09 07:44:47;;;;;;;20.27;7.28;;;10.00;99.90;;;10.37;93.45;102412.97;5051047;28;20256;-76
2021/11/09 07:47:14;;;;;;;19.67;7.50;;;9.90;99.90;;;10.40;93.24;102421.66;5041371;28;20224;-77
2021/11/09 07:49:42;;;;;;;20.10;7.25;;;10.00;99.90;;;10.42;93.33;102421.66;5039921;28;20220;-76
2021/11/09 07:52:10;;;;;;;19.50;6.88;;;10.00;99.90;;;10.45;92.81;102421.66;5045884;28;21007;-76
2021/11/09 07:54:40;;;;;;;20.40;8.18;;;10.00;99.90;;;10.49;92.96;102420.72;5039969;28;20259;-76
2021/11/09 07:57:09;;;;;;;22.33;7.57;;;10.10;99.90;;;10.54;92.79;102424.16;5038217;28;20218;-78
2021/11/09 07:59:40;;;;;;;19.83;6.45;;;10.10;99.90;;;10.54;92.47;102425.03;5046565;28;20669;-75
2021/11/09 08:02:11;;;;;;;19.20;7.43;;;10.10;99.90;;;10.54;92.60;102437.25;5061402;28;20287;-76
2021/11/09 08:04:44;;;;;;;19.23;6.85;;;10.10;99.90;;;10.52;92.51;102441.63;5048126;28;20185;-77
2021/11/09 08:07:16;;;;;;;24.17;7.63;;;10.10;99.90;;;10.47;92.26;102444.28;5045534;28;20209;-77
2021/11/09 08:09:43;;;;;;;20.83;7.38;;;10.10;99.90;;;10.46;92.33;102447.81;5042698;28;20220;-76
2021/11/09 08:12:11;;;;;;;24.38;7.20;;;10.10;99.90;;;10.44;92.37;102454.78;5045846;28;20192;-77
2021/11/09 08:14:39;;;;;;;17.38;6.40;;;10.00;99.90;;;10.41;92.24;102453.94;5048744;28;20185;-77
2021/11/09 08:17:06;;;;;;;19.92;6.75;;;10.00;99.90;;;10.37;92.11;102457.47;5046263;28;20217;-78
2021/11/09 08:19:33;;;;;;;19.20;7.47;;;10.00;99.90;;;10.35;92.41;102454.84;5041585;28;20255;-78
2021/11/09 08:22:01;;;;;;;22.02;7.60;;;10.00;99.90;;;10.36;92.45;102460.97;5036653;28;20209;-77
2021/11/09 08:24:30;;;;;;;22.73;7.40;;;10.00;99.90;;;10.33;92.24;102461.00;5044643;28;20653;-77
2021/11/09 08:27:00;;;;;;;21.15;7.68;;;9.90;99.90;;;10.32;92.37;102454.00;5042649;28;20295;-77
2021/11/09 08:29:27;;;;;;;22.30;7.82;;;9.90;99.90;;;10.36;92.43;102463.59;5039626;28;20244;-78
2021/11/09 08:31:56;;;;;;;25.10;8.02;;;10.00;99.90;;;10.42;92.37;102464.41;5046962;28;20192;-78
2021/11/09 08:34:25;;;;;;;20.00;7.88;;;10.00;99.90;;;10.45;91.95;102466.97;5045307;28;20193;-78
2021/11/09 08:36:52;;;;;;;25.35;8.93;;;10.00;99.90;;;10.47;92.06;102459.13;5044513;28;20225;-78
2021/11/09 08:39:26;;;;;;;27.83;9.10;;;10.10;99.90;;;10.51;91.72;102466.06;5038199;28;20197;-78
2021/11/09 08:42:01;;;;;;;20.27;7.45;;;10.10;99.90;;;10.55;91.97;102462.56;5036165;28;20189;-78
2021/11/09 08:44:33;;;;;;;25.02;8.45;;;10.10;99.90;;;10.59;91.86;102469.47;5042517;28;20267;-78
2021/11/09 08:47:02;;;;;;;19.15;7.55;;;10.20;99.90;;;10.62;91.74;102469.44;5045907;28;20280;-77
2021/11/09 08:49:32;;;;;;;21.85;7.20;;;10.20;99.90;;;10.61;91.25;102473.84;5048745;28;20212;-77
2021/11/09 08:52:02;;;;;;;18.60;6.93;;;10.20;99.90;;;10.61;91.54;102465.09;5045040;28;20188;-78
2021/11/09 08:54:32;;;;;;;19.55;7.90;;;10.20;99.90;;;10.62;91.73;102467.72;5046071;28;20669;-76
2021/11/09 08:57:11;;;;;;;21.35;7.75;;;10.20;99.90;;;10.64;91.35;102470.31;5048510;28;20217;-78
2021/11/09 09:05:11;;;;;;;23.23;7.38;;;10.30;99.90;;;10.64;90.99;102467.69;5039178;28;20189;-78
2021/11/09 09:07:39;;;;;;;17.48;7.30;;;10.30;99.90;;;10.66;90.98;102472.03;5041225;28;20272;-78
2021/11/09 09:10:09;;;;;;;18.55;7.07;;;10.30;99.90;;;10.69;90.81;102474.63;5049374;28;20220;-76
2021/11/09 09:12:40;;;;;;;19.63;6.70;;;10.40;99.90;;;10.70;90.70;102472.88;5037401;28;20651;-76
2021/11/09 09:15:09;;;;;;;20.23;7.10;;;10.40;99.90;;;10.74;90.59;102470.22;5043474;28;20623;-76
2021/11/09 09:17:37;;;;;;;23.83;6.72;;;10.40;99.90;;;10.75;90.31;102468.47;5044006;28;20237;-74
2021/11/09 09:20:11;;;;;;;18.65;6.15;;;10.40;99.90;;;10.79;90.32;102473.66;5046998;28;20217;-75
2021/11/09 09:22:41;;;;;;;18.50;5.97;;;10.50;99.90;;;10.82;90.24;102472.75;5047250;28;20197;-75
2021/11/09 09:25:24;;;;;;;15.88;7.40;;;10.50;99.90;;;10.84;90.26;102471.84;5046672;28;20276;-76
2021/11/09 09:30:42;;;;;;;18.88;6.25;;;10.50;99.90;;;10.85;90.06;102472.75;5022330;28;20208;-76
2021/11/09 09:55:20;;;;;;;22.45;7.07;;;11.00;99.90;;;11.40;88.45;102477.31;5051841;28;20281;-75
2021/11/09 09:57:49;;;;;;;17.95;6.00;;;11.10;99.90;;;11.44;88.11;102482.53;5051323;28;20649;-76
2021/11/09 10:00:19;;;;;;;19.63;6.47;;;11.10;99.90;;;11.46;88.00;102481.63;5039150;28;20196;-77
2021/11/09 10:02:53;;;;;;;23.48;6.10;;;11.20;99.90;;;11.51;87.99;102486.78;5042259;28;20200;-77
2021/11/09 10:05:24;;;;;;;15.77;5.60;;;11.20;99.90;;;11.56;87.67;102482.38;5045237;28;20193;-77
2021/11/09 10:07:53;;;;;;;22.98;6.00;;;11.30;99.90;;;11.59;87.42;102483.19;5054560;28;20699;-77
2021/11/09 10:10:23;;;;;;;15.52;5.63;;;11.30;99.90;;;11.62;87.21;102477.06;5036686;28;20225;-76
2021/11/09 10:13:02;;;;;;;15.93;6.10;;;11.40;99.90;;;11.64;87.10;102483.19;5045146;28;20575;-78
2021/11/09 10:15:34;;;;;;;17.52;5.35;;;11.40;99.90;;;11.63;86.67;102476.16;5042105;28;20189;-77
2021/11/09 10:18:03;;;;;;;15.02;5.97;;;11.40;99.90;;;11.64;86.63;102484.03;5046733;28;20241;-77
2021/11/09 10:20:34;;;;;;;18.80;5.95;;;11.40;99.90;;;11.66;86.35;102482.25;5044543;28;20193;-77
2021/11/09 10:23:05;;;;;;;16.30;5.88;;;11.40;99.90;;;11.67;86.28;102478.75;5048417;28;20208;-77
2021/11/09 10:25:32;;;;;;;18.02;5.60;;;11.50;99.90;;;11.66;85.93;102484.00;5043383;28;20201;-76
2021/11/09 10:28:03;;;;;;;18.40;5.68;;;11.40;99.90;;;11.60;85.93;102487.56;5045143;28;20196;-77
2021/11/09 10:30:37;;;;;;;20.92;6.43;;;11.40;99.90;;;11.58;85.76;102499.81;5046531;28;20910;-77
2021/11/09 10:33:04;;;;;;;16.85;5.95;;;11.40;99.90;;;11.60;85.90;102490.19;5042145;28;20196;-77
2021/11/09 10:35:31;;;;;;;19.35;6.03;;;11.40;99.90;;;11.65;85.70;102495.41;5048235;28;20189;-78
2021/11/09 10:38:02;;;;;;;15.80;6.05;;;11.40;99.90;;;11.69;85.63;102500.56;5038892;28;20215;-78
2021/11/09 10:40:32;;;;;;;21.27;6.20;;;11.50;99.90;;;11.72;85.51;102511.03;5042316;28;20275;-77
2021/11/09 10:43:04;;;;;;;16.98;5.57;;;11.50;99.90;;;11.74;85.45;102513.66;5042316;28;20510;-77
2021/11/09 10:45:36;;;;;;;14.57;5.60;;;11.50;99.90;;;11.76;85.01;102502.22;5059275;28;20305;-78
2021/11/09 10:48:07;;;;;;;20.40;6.50;;;11.50;99.90;;;11.77;84.76;102516.22;5044217;28;20185;-77
2021/11/09 10:50:37;;;;;;;16.73;5.70;;;11.50;99.90;;;11.73;85.09;102518.03;5041772;28;20295;-78
2021/11/09 10:53:13;;;;;;;19.13;5.20;;;11.50;99.90;;;11.69;85.04;102515.47;5060499;28;20224;-77
2021/11/09 10:56:03;;;;;;;14.77;5.40;;;11.50;99.90;;;11.64;84.59;102514.66;5042964;28;20196;-76
2021/11/09 11:04:03;;;;;;;18.05;5.40;;;11.40;99.90;;;11.67;84.59;102510.22;5043638;28;20284;-77
2021/11/09 11:06:33;;;;;;;18.77;5.40;;;11.50;99.90;;;11.71;84.39;102511.91;5045966;28;20591;-77
2021/11/09 11:09:19;;;;;;;15.05;4.80;;;11.50;99.90;;;11.72;84.22;102507.56;5044693;28;20216;-75
2021/11/09 11:11:52;;;;;;;16.90;4.90;;;11.50;99.90;;;11.74;83.99;102504.00;5048972;28;20208;-75
2021/11/09 11:14:21;;;;;;;11.63;4.30;;;11.50;99.90;;;11.80;83.71;102503.94;5050384;28;20193;-75
2021/11/09 11:16:54;;;;;;;14.15;4.35;;;11.60;99.90;;;11.83;83.54;102490.78;5041326;28;20561;-75
2021/11/09 11:19:24;;;;;;;10.23;3.83;;;11.60;99.90;;;11.84;83.25;102497.75;5041546;28;20212;-75
2021/11/09 11:21:51;;;;;;;13.13;3.40;;;11.60;99.90;;;11.84;82.88;102496.91;5039349;28;20675;-75
2021/11/09 11:24:21;;;;;;;14.80;4.15;;;11.60;99.90;;;11.88;82.33;102495.94;5048113;28;20648;-75
2021/11/09 11:26:50;;;;;;;12.88;3.80;;;11.60;99.90;;;11.93;81.85;102494.13;5043269;28;20893;-75
2021/11/09 11:29:19;;;;;;;13.88;4.35;;;11.60;99.90;;;11.97;81.66;102488.81;5043430;28;20208;-76
2021/11/09 11:31:48;;;;;;;10.93;3.78;;;11.70;99.90;;;12.03;81.32;102491.34;5041933;28;20189;-76
2021/11/09 11:34:19;;;;;;;9.48;3.55;;;11.70;99.90;;;12.04;80.87;102489.63;5044604;28;20661;-76
2021/11/09 11:36:48;;;;;;;12.70;3.33;;;11.70;99.90;;;12.04;80.63;102482.59;5053737;28;20236;-76
2021/11/09 11:39:18;;;;;;;14.60;3.00;;;11.80;99.90;;;12.10;79.92;102490.38;5043092;28;20665;-75
2021/11/09 11:41:52;;;;;;;10.43;2.65;;;11.80;99.90;;;12.13;79.32;102484.22;5038650;28;20957;-76
2021/11/09 11:44:23;;;;;;;11.45;2.78;;;11.80;99.90;;;12.13;78.96;102489.44;5041276;28;20661;-75
2021/11/09 11:46:57;;;;;;;13.57;2.83;;;11.80;99.90;;;12.14;78.16;102491.22;5041142;28;20590;-76